Time;durP1;ratioP1;P1;durP2;ratioP2;P2;SDS_P1;SDS_P2;PMS_P1;PMS_P2;Temp;Humidity;BMP_temperature;BMP_pressure;BME280_temperature;BME280_humidity;BME280_pressure;Samples;Min_cycle;Max_cycle;Signal;HPM_P1;HPM_P2
2021/09/08 00:00:14;;;;;;;36.38;18.35;;;;;;;12.16;100.00;98409.03;5016878;28;20042;-79
2021/09/08 00:02:41;;;;;;;36.78;20.20;;;;;;;12.12;100.00;98417.00;5034313;28;20045;-79
2021/09/08 00:05:09;;;;;;;35.63;19.67;;;;;;;12.32;100.00;98429.31;5059960;22;20489;-81
2021/09/08 00:07:37;;;;;;;30.35;17.40;;;;;;;12.28;100.00;98417.47;5074639;28;20048;-81
2021/09/08 00:10:05;;;;;;;33.53;18.58;;;;;;;12.33;100.00;98422.78;5057492;28;20040;-80
2021/09/08 00:12:32;;;;;;;32.40;18.63;;;;;;;12.40;100.00;98425.88;5074491;28;20055;-80
2021/09/08 00:14:59;;;;;;;29.85;16.98;;;;;;;12.24;100.00;98419.97;5074944;28;20044;-81
2021/09/08 00:17:26;;;;;;;33.55;17.95;;;;;;;12.22;100.00;98422.19;5075309;28;20044;-81
2021/09/08 00:19:52;;;;;;;28.92;16.85;;;;;;;13.16;100.00;98424.03;5039946;28;20113;-81
2021/09/08 00:22:19;;;;;;;30.58;17.88;;;;;;;11.97;100.00;98413.81;5074816;28;20496;-82
2021/09/08 00:24:46;;;;;;;37.00;18.70;;;;;;;11.88;100.00;98419.97;5073458;28;20127;-80
2021/09/08 00:27:12;;;;;;;31.85;17.90;;;;;;;11.83;100.00;98417.34;5056505;28;20074;-81
2021/09/08 00:29:39;;;;;;;32.75;17.35;;;;;;;11.96;100.00;98413.00;5073486;28;20044;-81
2021/09/08 00:32:06;;;;;;;28.42;16.23;;;;;;;11.82;100.00;98417.63;5071401;28;20048;-80
2021/09/08 00:34:32;;;;;;;28.83;16.08;;;;;;;11.79;100.00;98424.47;5069657;28;20067;-80
2021/09/08 00:37:01;;;;;;;26.48;15.77;;;;;;;11.77;100.00;98406.91;5069768;28;20075;-81
2021/09/08 00:39:28;;;;;;;33.13;17.55;;;;;;;11.74;100.00;98421.09;5070464;28;20048;-80
2021/09/08 00:41:54;;;;;;;31.05;17.85;;;;;;;11.72;100.00;98415.16;5069749;28;20049;-79
2021/09/08 00:44:25;;;;;;;26.25;16.08;;;;;;;11.73;100.00;98420.28;5069384;28;20041;-80
2021/09/08 00:46:51;;;;;;;29.45;16.38;;;;;;;11.72;100.00;98407.81;5068967;28;20036;-81
2021/09/08 00:49:19;;;;;;;28.00;16.60;;;;;;;11.61;100.00;98419.97;5069560;28;20041;-80
2021/09/08 00:51:46;;;;;;;28.25;16.17;;;;;;;11.66;100.00;98402.78;5071742;28;20049;-81
2021/09/08 00:54:15;;;;;;;30.02;15.35;;;;;;;11.62;100.00;98396.34;5071391;28;20075;-81
2021/09/08 00:56:43;;;;;;;28.42;16.08;;;;;;;11.67;100.00;98410.59;5070135;28;20079;-80
2021/09/08 00:59:11;;;;;;;27.10;16.10;;;;;;;11.63;100.00;98406.09;5069926;28;20036;-82
2021/09/08 01:01:38;;;;;;;29.58;16.05;;;;;;;11.76;100.00;98410.72;5053691;28;20166;-80
2021/09/08 01:04:05;;;;;;;30.00;15.32;;;;;;;11.70;100.00;98410.03;5052660;28;20213;-81
2021/09/08 01:06:32;;;;;;;24.67;14.55;;;;;;;11.70;100.00;98396.47;5071951;28;20040;-80
2021/09/08 01:08:59;;;;;;;24.10;13.98;;;;;;;11.74;100.00;98408.31;5072562;28;20258;-81
2021/09/08 01:11:26;;;;;;;22.73;14.00;;;;;;;11.84;100.00;98407.31;5053977;28;20049;-80
2021/09/08 01:13:52;;;;;;;24.70;13.65;;;;;;;11.70;100.00;98411.94;5072415;28;20064;-81
2021/09/08 01:16:19;;;;;;;31.75;16.65;;;;;;;11.64;100.00;98413.13;5071128;28;20044;-82
2021/09/08 01:18:46;;;;;;;29.35;15.30;;;;;;;11.57;100.00;98410.81;5072248;28;20130;-81
2021/09/08 01:21:12;;;;;;;31.45;16.23;;;;;;;11.46;100.00;98405.91;5073303;28;20045;-82
2021/09/08 01:23:39;;;;;;;26.77;14.93;;;;;;;11.60;100.00;98409.41;5054688;28;20053;-82
2021/09/08 01:26:06;;;;;;;27.33;14.45;;;;;;;11.63;100.00;98406.09;5072470;28;20067;-81
2021/09/08 01:28:32;;;;;;;26.95;14.43;;;;;;;11.69;100.00;98411.13;5071745;28;20048;-80
2021/09/08 01:30:59;;;;;;;28.02;15.45;;;;;;;11.68;100.00;98397.84;5072034;28;20044;-80
2021/09/08 01:33:26;;;;;;;25.55;14.25;;;;;;;11.67;100.00;98391.63;5071971;28;20048;-82
2021/09/08 01:35:52;;;;;;;26.98;15.18;;;;;;;11.65;100.00;98393.03;5053819;28;20464;-82
2021/09/08 01:38:19;;;;;;;30.95;15.18;;;;;;;11.62;100.00;98371.94;5071646;28;20044;-82
2021/09/08 01:40:46;;;;;;;28.77;16.45;;;;;;;11.67;100.00;98393.53;5054396;28;20033;-81
2021/09/08 01:43:13;;;;;;;34.83;17.13;;;;;;;11.66;100.00;98386.50;5070856;28;20044;-80
2021/09/08 01:45:41;;;;;;;32.45;18.52;;;;;;;11.72;100.00;98380.69;5071597;28;20043;-81
2021/09/08 01:48:08;;;;;;;36.10;19.80;;;;;;;11.76;100.00;98381.72;5070995;28;20072;-81
2021/09/08 01:50:35;;;;;;;39.60;20.25;;;;;;;11.76;100.00;98380.91;5070745;28;20561;-81
2021/09/08 01:53:02;;;;;;;41.88;20.08;;;;;;;11.75;100.00;98388.22;5053212;28;20044;-82
2021/09/08 01:55:29;;;;;;;33.90;19.23;;;;;;;11.74;100.00;98389.31;5054547;28;20514;-81
2021/09/08 01:57:55;;;;;;;30.98;17.48;;;;;;;11.75;100.00;98384.69;5056732;28;20052;-81
2021/09/08 02:00:22;;;;;;;27.90;16.95;;;;;;;11.71;100.00;98364.72;5075354;28;20048;-80
2021/09/08 02:02:49;;;;;;;30.67;16.33;;;;;;;11.64;100.00;98373.22;5076680;28;20040;-80
2021/09/08 02:05:16;;;;;;;36.17;19.02;;;;;;;11.56;100.00;98365.81;5040483;28;20139;-80
2021/09/08 02:07:44;;;;;;;37.53;20.08;;;;;;;11.56;100.00;98376.66;5071137;28;20580;-80
2021/09/08 02:10:11;;;;;;;36.80;19.85;;;;;;;11.53;100.00;98376.47;5072422;28;20539;-80
2021/09/08 02:12:42;;;;;;;44.08;22.23;;;;;;;11.53;100.00;98373.75;5054264;28;20048;-81
2021/09/08 02:15:09;;;;;;;39.00;20.33;;;;;;;11.55;100.00;98379.69;5073369;28;20045;-81
2021/09/08 02:17:36;;;;;;;44.85;22.52;;;;;;;11.46;100.00;98370.66;5074363;28;20127;-80
2021/09/08 02:20:03;;;;;;;45.00;23.80;;;;;;;11.53;100.00;98371.84;5075389;28;20386;-81
2021/09/08 02:22:30;;;;;;;45.10;24.55;;;;;;;11.56;100.00;98359.59;5074998;28;20036;-81
2021/09/08 02:24:57;;;;;;;51.58;26.42;;;;;;;11.60;100.00;98363.31;5072676;28;20060;-81
2021/09/08 02:27:24;;;;;;;54.60;27.90;;;;;;;11.52;100.00;98353.16;5073167;28;20215;-82
2021/09/08 02:29:51;;;;;;;48.15;26.10;;;;;;;11.46;100.00;98365.25;5074093;28;20040;-82
2021/09/08 02:32:17;;;;;;;52.80;28.48;;;;;;;11.30;100.00;98359.31;5056241;28;20051;-80
2021/09/08 02:34:44;;;;;;;52.15;27.92;;;;;;;11.25;100.00;98373.75;5074089;28;20051;-80
2021/09/08 02:37:13;;;;;;;48.53;26.17;;;;;;;11.29;100.00;98363.13;5073832;28;20051;-81
2021/09/08 02:39:40;;;;;;;55.67;29.05;;;;;;;11.34;100.00;98370.34;5074003;28;20037;-80
2021/09/08 02:42:07;;;;;;;47.38;25.42;;;;;;;11.38;100.00;98368.66;5074810;28;20151;-80
2021/09/08 02:44:34;;;;;;;45.75;24.45;;;;;;;11.38;100.00;98363.22;5057492;28;20049;-81
2021/09/08 02:47:01;;;;;;;42.33;22.33;;;;;;;11.39;100.00;98357.50;5078104;28;20044;-80
2021/09/08 02:49:27;;;;;;;40.72;24.27;;;;;;;11.29;100.00;98363.13;5082244;28;20094;-81
2021/09/08 02:51:54;;;;;;;45.42;23.45;;;;;;;11.28;100.00;98370.44;5083274;28;20041;-81
2021/09/08 02:54:20;;;;;;;38.83;21.90;;;;;;;11.22;100.00;98358.13;5066681;28;20554;-80
2021/09/08 02:56:47;;;;;;;42.60;22.67;;;;;;;11.28;100.00;98351.47;5083352;28;20045;-80
2021/09/08 02:59:13;;;;;;;40.42;22.38;;;;;;;11.25;100.00;98359.41;5057297;28;20040;-81
2021/09/08 03:01:40;;;;;;;43.58;24.23;;;;;;;11.20;100.00;98359.53;5076685;28;20048;-81
2021/09/08 03:04:08;;;;;;;49.42;24.98;;;;;;;11.19;100.00;98368.75;5076067;28;20052;-81
2021/09/08 03:06:35;;;;;;;45.63;24.13;;;;;;;11.21;100.00;98366.53;5056919;28;20198;-81
2021/09/08 03:09:02;;;;;;;46.13;23.40;;;;;;;11.15;100.00;98367.72;5074672;28;20449;-81
2021/09/08 03:11:29;;;;;;;38.50;21.63;;;;;;;11.12;100.00;98355.56;5074189;28;20078;-79
2021/09/08 03:13:56;;;;;;;42.00;23.40;;;;;;;11.10;100.00;98356.97;5055717;28;20044;-81
2021/09/08 03:16:27;;;;;;;45.30;23.13;;;;;;;11.04;100.00;98359.00;5074983;28;20134;-80
2021/09/08 03:18:54;;;;;;;50.55;25.13;;;;;;;11.02;100.00;98357.69;5058736;28;20079;-81
2021/09/08 03:21:20;;;;;;;40.67;22.95;;;;;;;11.02;100.00;98350.34;5077909;28;20040;-80
2021/09/08 03:23:47;;;;;;;39.95;22.33;;;;;;;10.96;100.00;98350.75;5077767;28;20353;-81
2021/09/08 03:26:14;;;;;;;40.30;22.88;;;;;;;10.95;100.00;98347.25;5059081;28;20044;-80
2021/09/08 03:28:42;;;;;;;43.67;23.10;;;;;;;10.93;100.00;98349.47;5059318;28;20040;-81
2021/09/08 03:31:09;;;;;;;47.28;24.48;;;;;;;10.81;100.00;98340.22;5074190;28;20051;-80
2021/09/08 03:33:36;;;;;;;44.55;23.60;;;;;;;10.80;100.00;98350.25;5049105;28;20036;-79
2021/09/08 03:36:03;;;;;;;40.50;22.10;;;;;;;10.78;100.00;98344.31;5069250;28;20044;-80
2021/09/08 03:38:29;;;;;;;49.53;23.63;;;;;;;10.82;100.00;98350.75;5063179;28;20370;-81
2021/09/08 03:40:56;;;;;;;41.60;23.33;;;;;;;10.81;100.00;98345.63;5034047;28;20135;-80
2021/09/08 03:43:22;;;;;;;42.47;22.33;;;;;;;10.91;100.00;98345.44;5051991;28;20045;-81
2021/09/08 03:45:49;;;;;;;46.28;23.20;;;;;;;10.71;100.00;98322.22;5034178;28;20041;-81
2021/09/08 03:48:16;;;;;;;42.65;23.25;;;;;;;10.81;100.00;98338.31;5061901;28;20078;-81
2021/09/08 03:50:43;;;;;;;40.25;22.92;;;;;;;10.82;100.00;98339.91;5067734;28;20045;-80
2021/09/08 03:53:09;;;;;;;42.78;23.60;;;;;;;10.81;100.00;98349.16;5050507;28;20049;-82
2021/09/08 03:55:36;;;;;;;45.15;23.67;;;;;;;10.67;100.00;98337.47;5065397;28;20545;-82
2021/09/08 03:58:02;;;;;;;44.22;22.85;;;;;;;10.61;100.00;98328.63;5065494;28;20592;-83
2021/09/08 04:00:29;;;;;;;42.05;22.70;;;;;;;10.69;100.00;98340.69;5060137;28;20151;-79
2021/09/08 04:02:58;;;;;;;44.78;23.38;;;;;;;10.67;100.00;98336.66;5058811;28;20104;-82
2021/09/08 04:05:25;;;;;;;45.20;23.83;;;;;;;10.57;100.00;98310.59;5055332;28;20041;-80
2021/09/08 04:07:52;;;;;;;40.42;22.55;;;;;;;10.60;100.00;98340.59;5065178;28;20537;-81
2021/09/08 04:10:18;;;;;;;44.13;21.88;;;;;;;10.62;100.00;98341.09;5057170;28;20250;-82
2021/09/08 04:12:45;;;;;;;43.63;23.30;;;;;;;10.59;100.00;98335.44;5074180;28;20051;-81
2021/09/08 04:15:13;;;;;;;50.42;25.02;;;;;;;10.53;100.00;98345.56;5075232;28;20131;-80
2021/09/08 04:17:39;;;;;;;45.17;24.27;;;;;;;10.59;100.00;98335.44;5092196;28;20041;-79
2021/09/08 04:20:12;;;;;;;45.90;25.13;;;;;;;10.56;100.00;98317.91;5094088;28;20029;-83
2021/09/08 04:22:38;;;;;;;49.33;25.23;;;;;;;10.63;100.00;98326.44;5072977;28;20024;-82
2021/09/08 04:25:05;;;;;;;47.58;24.85;;;;;;;10.64;100.00;98327.22;5084954;28;20048;-82
2021/09/08 04:27:33;;;;;;;50.53;25.20;;;;;;;10.47;100.00;98317.00;5084179;28;20052;-82
2021/09/08 04:29:59;;;;;;;51.47;25.10;;;;;;;10.46;100.00;98315.38;5088636;28;20028;-81
2021/09/08 04:32:26;;;;;;;46.28;22.98;;;;;;;10.57;100.00;98327.63;5051034;28;20072;-78
2021/09/08 04:34:52;;;;;;;45.72;25.17;;;;;;;10.53;100.00;98323.09;5051414;28;20539;-80
2021/09/08 04:37:22;;;;;;;45.80;23.70;;;;;;;10.64;100.00;98329.94;5052717;28;20045;-81
2021/09/08 04:39:48;;;;;;;41.88;21.98;;;;;;;10.64;100.00;98321.81;5054301;28;20037;-78
2021/09/08 04:42:16;;;;;;;39.75;21.38;;;;;;;10.66;100.00;98311.50;5053509;28;20056;-80
2021/09/08 04:44:42;;;;;;;36.78;20.35;;;;;;;10.74;100.00;98323.53;5053721;28;20044;-80
2021/09/08 04:47:09;;;;;;;35.72;20.50;;;;;;;10.73;100.00;98313.81;5059938;28;20323;-78
2021/09/08 04:49:36;;;;;;;39.65;21.90;;;;;;;10.69;100.00;98304.66;5061474;28;20044;-80
2021/09/08 04:52:04;;;;;;;39.08;21.33;;;;;;;10.77;100.00;98312.91;5055066;28;20079;-80
2021/09/08 04:54:30;;;;;;;38.35;20.48;;;;;;;10.79;100.00;98315.34;5055399;28;20068;-80
2021/09/08 04:56:57;;;;;;;34.55;20.13;;;;;;;10.72;100.00;98296.75;5073789;28;20045;-80
2021/09/08 04:59:24;;;;;;;36.65;21.20;;;;;;;10.77;100.00;98306.69;5054086;28;20476;-80
2021/09/08 05:01:51;;;;;;;34.75;19.70;;;;;;;10.83;100.00;98317.16;5073257;28;20092;-81
2021/09/08 05:04:17;;;;;;;39.47;20.17;;;;;;;10.85;100.00;98304.09;5073123;28;20106;-80
2021/09/08 05:06:44;;;;;;;35.95;19.23;;;;;;;10.95;100.00;98319.34;5071860;28;20298;-81
2021/09/08 05:09:10;;;;;;;40.00;20.40;;;;;;;11.00;100.00;98313.81;5071213;28;20055;-81
2021/09/08 05:11:37;;;;;;;37.20;20.85;;;;;;;11.05;100.00;98314.53;5038336;28;20044;-80
2021/09/08 05:14:04;;;;;;;36.53;20.08;;;;;;;11.12;100.00;98312.22;5071386;28;20049;-80
2021/09/08 05:16:31;;;;;;;38.58;20.77;;;;;;;11.12;100.00;98300.59;5071878;28;20053;-79
2021/09/08 05:18:58;;;;;;;34.10;19.70;;;;;;;11.23;100.00;98308.22;5069625;28;20041;-80
2021/09/08 05:21:24;;;;;;;29.45;18.15;;;;;;;11.31;100.00;98308.59;5070031;28;20488;-79
2021/09/08 05:23:51;;;;;;;29.38;18.67;;;;;;;11.42;100.00;98304.56;5051785;28;20048;-79
2021/09/08 05:26:18;;;;;;;30.50;17.70;;;;;;;11.47;100.00;98297.13;5051825;28;20040;-81
2021/09/08 05:28:44;;;;;;;31.63;17.05;;;;;;;11.58;100.00;98295.00;5068997;28;20049;-80
2021/09/08 05:31:11;;;;;;;31.33;16.38;;;;;;;11.67;100.00;98314.88;5071997;28;20054;-80
2021/09/08 05:33:38;;;;;;;29.67;17.63;;;;;;;11.71;100.00;98294.22;5074306;28;20404;-80
2021/09/08 05:36:04;;;;;;;34.42;18.15;;;;;;;11.76;100.00;98300.31;5056401;28;20106;-81
2021/09/08 05:38:31;;;;;;;35.65;18.00;;;;;;;11.82;100.00;98290.13;5074659;28;20045;-83
2021/09/08 05:41:02;;;;;;;32.38;17.63;;;;;;;11.89;100.00;98295.97;5082018;28;20044;-83
2021/09/08 05:43:29;;;;;;;33.42;18.50;;;;;;;12.03;100.00;98304.03;5082490;28;20044;-83
2021/09/08 05:45:55;;;;;;;35.22;19.17;;;;;;;12.13;100.00;98298.38;5082618;28;20060;-82
2021/09/08 05:48:22;;;;;;;33.33;19.23;;;;;;;12.30;100.00;98303.94;5082091;28;20079;-81
2021/09/08 05:50:48;;;;;;;38.35;20.33;;;;;;;12.41;100.00;98311.50;5081936;28;20040;-82
2021/09/08 05:53:15;;;;;;;37.63;20.98;;;;;;;12.54;100.00;98314.47;5083108;28;20284;-81
2021/09/08 05:55:41;;;;;;;45.53;25.00;;;;;;;12.65;100.00;98300.28;5083786;28;20055;-82
2021/09/08 05:58:08;;;;;;;39.08;20.75;;;;;;;12.72;100.00;98294.44;5084500;28;20067;-81
2021/09/08 06:00:35;;;;;;;47.53;24.73;;;;;;;12.97;100.00;98299.16;5083906;28;20036;-82
2021/09/08 06:03:01;;;;;;;45.50;24.38;;;;;;;13.13;100.00;98307.72;5082011;28;20041;-82
2021/09/08 06:05:28;;;;;;;49.53;26.75;;;;;;;13.36;100.00;98309.25;5096900;22;20068;-81
2021/09/08 06:07:55;;;;;;;46.70;26.58;;;;;;;13.47;100.00;98305.91;5042960;28;20037;-80
2021/09/08 06:10:22;;;;;;;49.45;27.23;;;;;;;13.62;100.00;98310.09;5060991;28;20048;-79
2021/09/08 06:12:48;;;;;;;43.83;26.25;;;;;;;13.83;100.00;98318.44;5061219;28;20056;-80
2021/09/08 06:15:16;;;;;;;48.13;27.70;;;;;;;13.94;100.00;98309.63;5061215;28;20045;-82
2021/09/08 06:17:43;;;;;;;58.63;27.50;;;;;;;14.09;100.00;98306.44;5059969;28;20053;-81
2021/09/08 06:20:10;;;;;;;48.22;27.35;;;;;;;14.15;100.00;98298.91;5264030;22;20053;-85
2021/09/08 06:22:51;;;;;;;47.20;26.05;;;;;;;14.44;100.00;98306.44;5038607;28;20049;-83
2021/09/08 06:25:36;;;;;;;44.45;25.20;;;;;;;14.59;100.00;98304.00;5021009;28;20148;-85
2021/09/08 06:28:04;;;;;;;46.83;25.77;;;;;;;14.77;100.00;98299.28;5037361;28;20118;-84
2021/09/08 06:30:32;;;;;;;43.50;23.38;;;;;;;14.90;100.00;98287.38;5033565;28;20156;-83
2021/09/08 06:33:10;;;;;;;41.30;23.05;;;;;;;15.05;100.00;98284.09;5001513;28;20052;-84
2021/09/08 06:48:35;;;;;;;33.80;18.77;;;;;;;16.08;100.00;98261.59;4898220;29;20060;-80
2021/09/08 06:57:33;;;;;;;;;;;;;;;16.75;100.00;98286.66;4753015;30;20091;-82
2021/09/08 07:00:43;;;;;;;34.08;17.63;;;;;;;17.03;100.00;98275.09;4847351;29;20014;-81
2021/09/08 07:09:31;;;;;;;29.90;17.63;;;;;;;17.53;100.00;98256.41;4753134;30;20060;-82
2021/09/08 07:21:54;;;;;;;27.45;16.27;;;;;;;18.24;100.00;98240.09;4789357;29;20051;-82
2021/09/08 07:30:08;;;;;;;38.92;18.58;;;;;;;18.87;100.00;98251.16;4843586;29;20079;-82
2021/09/08 07:47:24;;;;;;;45.08;19.85;;;;;;;19.74;100.00;98227.72;4845723;29;20049;-83
2021/09/08 07:50:27;;;;;;;;;;;;;;;;;;;;;
2021/09/08 07:59:01;;;;;;;28.38;14.35;;;;;;;20.57;100.00;98259.28;4868052;29;20042;-82
2021/09/08 08:11:17;;;;;;;22.30;14.07;;;;;;;21.05;100.00;98219.22;4895138;29;20378;-82
2021/09/08 08:17:41;;;;;;;25.00;11.88;;;;;;;21.63;100.00;98247.28;5010871;28;20057;-79
2021/09/08 08:20:10;;;;;;;19.15;10.38;;;;;;;21.83;100.00;98246.00;5002475;28;20429;-78
2021/09/08 08:22:39;;;;;;;24.20;11.57;;;;;;;21.92;100.00;98240.22;4992117;28;20113;-78
2021/09/08 08:25:10;;;;;;;19.02;10.50;;;;;;;22.13;100.00;98243.25;4994806;28;20042;-79
2021/09/08 08:27:36;;;;;;;18.77;10.40;;;;;;;22.19;100.00;98237.03;4998171;28;20097;-79
2021/09/08 08:43:31;;;;;;;16.75;9.02;;;;;;;22.86;100.00;98231.44;4988425;28;20069;-81
2021/09/08 08:46:00;;;;;;;19.55;8.57;;;;;;;22.92;100.00;98240.94;4991996;28;20050;-81
2021/09/08 08:48:28;;;;;;;14.23;8.27;;;;;;;23.13;100.00;98238.38;4991828;28;20462;-81
2021/09/08 08:50:54;;;;;;;15.07;8.32;;;;;;;23.34;100.00;98229.44;4991701;28;20083;-81
2021/09/08 08:53:21;;;;;;;16.33;8.57;;;;;;;23.37;100.00;98235.03;4992501;28;20125;-81
2021/09/08 08:55:48;;;;;;;16.55;7.75;;;;;;;23.47;100.00;98230.75;4994616;28;20050;-81
2021/09/08 08:58:14;;;;;;;19.67;8.18;;;;;;;23.43;100.00;98227.19;4992850;28;20046;-81
2021/09/08 09:00:42;;;;;;;11.43;7.43;;;;;;;23.62;91.46;98226.91;4992204;28;20100;-81
2021/09/08 09:03:23;;;;;;;14.73;6.93;;;;;;;23.57;87.28;98218.97;4958296;28;20076;-81
2021/09/08 09:06:03;;;;;;;13.82;6.95;;;;;;;23.69;82.06;98215.91;4994832;28;20054;-83
2021/09/08 09:08:33;;;;;;;13.07;7.28;;;;;;;23.74;82.95;98221.06;4996171;28;20047;-81
2021/09/08 09:11:01;;;;;;;11.35;6.97;;;;;;;23.85;67.91;98221.09;4994158;28;20046;-81
2021/09/08 09:13:32;;;;;;;10.65;7.13;;;;;;;23.68;65.49;98216.25;4996797;28;20050;-81
2021/09/08 09:16:07;;;;;;;12.75;7.40;;;;;;;23.76;69.88;98212.38;4996041;28;20069;-80
2021/09/08 09:18:45;;;;;;;15.73;6.77;;;;;;;24.32;77.05;98217.34;4978105;28;20073;-80
2021/09/08 09:21:13;;;;;;;13.20;7.18;;;;;;;24.36;63.82;98205.13;5000855;28;20054;-80
2021/09/08 09:23:42;;;;;;;11.93;6.70;;;;;;;24.48;62.57;98204.75;4999899;28;20501;-79
2021/09/08 09:26:09;;;;;;;11.38;6.65;;;;;;;24.56;61.52;98195.28;4982606;28;20316;-80
2021/09/08 09:28:42;;;;;;;12.15;6.95;;;;;;;24.93;62.77;98199.69;4998845;28;20054;-80
2021/09/08 09:31:17;;;;;;;13.15;7.15;;;;;;;24.78;62.63;98204.41;4994470;28;20049;-80
2021/09/08 09:33:51;;;;;;;21.27;7.45;;;;;;;24.89;63.57;98198.88;4978278;28;20062;-79
2021/09/08 09:36:21;;;;;;;11.85;7.00;;;;;;;25.02;66.02;98198.09;4996903;28;20038;-78
2021/09/08 09:38:50;;;;;;;13.75;7.30;;;;;;;25.30;67.34;98180.66;4996727;28;20069;-81
2021/09/08 09:41:22;;;;;;;12.77;7.70;;;;;;;25.24;68.43;98183.03;4962390;28;20394;-80
2021/09/08 09:43:49;;;;;;;14.52;7.75;;;;;;;25.28;64.97;98183.03;4978846;28;20097;-81
2021/09/08 09:46:16;;;;;;;11.68;7.38;;;;;;;25.45;64.93;98175.88;4977150;28;20449;-81
2021/09/08 09:48:50;;;;;;;11.23;7.00;;;;;;;26.73;60.89;98169.34;4977869;28;20058;-80
2021/09/08 09:51:16;;;;;;;11.85;6.75;;;;;;;26.90;56.45;98168.44;4995036;28;20679;-80
2021/09/08 09:53:43;;;;;;;15.32;7.10;;;;;;;26.75;54.51;98175.28;4995840;28;20077;-79
2021/09/08 09:56:09;;;;;;;12.10;6.57;;;;;;;26.99;51.33;98160.44;4995936;28;20050;-81
2021/09/08 09:58:36;;;;;;;15.85;7.22;;;;;;;26.82;51.67;98169.69;4995172;28;20395;-81
2021/09/08 10:01:09;;;;;;;12.15;6.68;;;;;;;26.77;48.84;98156.25;4994384;28;20038;-81
2021/09/08 10:03:35;;;;;;;10.23;7.30;;;;;;;26.70;47.95;98155.47;4976763;28;20054;-80
2021/09/08 10:06:02;;;;;;;12.88;7.00;;;;;;;26.97;49.65;98157.25;4976997;28;20069;-80
2021/09/08 10:08:33;;;;;;;59.25;10.18;;;;;;;27.45;47.52;98146.09;4994576;28;20052;-81
2021/09/08 10:11:05;;;;;;;14.25;7.00;;;;;;;27.99;47.03;98147.03;4960554;28;20116;-81
2021/09/08 10:13:42;;;;;;;10.52;6.22;;;;;;;29.31;42.00;98136.28;4960805;28;20053;-81
2021/09/08 10:16:09;;;;;;;10.57;6.57;;;;;;;30.12;42.09;98140.22;4975953;28;20061;-81
2021/09/08 10:18:36;;;;;;;11.88;6.47;;;;;;;30.41;38.32;98134.81;4977034;28;20082;-80
2021/09/08 10:21:03;;;;;;;9.15;5.68;;;;;;;31.25;37.84;98137.53;4976126;28;20101;-79
2021/09/08 10:23:37;;;;;;;9.77;6.13;;;;;;;30.77;36.70;98135.53;4976644;28;20096;-79
2021/09/08 10:26:17;;;;;;;13.57;6.07;;;;;;;30.99;38.83;98132.25;4977101;28;20261;-80
2021/09/08 10:28:46;;;;;;;9.43;5.72;;;;;;;30.34;39.60;98125.78;4977293;28;20109;-80
2021/09/08 10:31:14;;;;;;;8.73;5.30;;;;;;;31.49;34.77;98117.75;4993905;28;20047;-80
2021/09/08 10:33:43;;;;;;;7.57;5.88;;;;;;;32.46;33.99;98116.03;4977887;28;20054;-79
2021/09/08 10:36:12;;;;;;;7.80;5.53;;;;;;;32.73;34.27;98109.97;4978432;28;20159;-80
2021/09/08 10:38:39;;;;;;;6.80;5.18;;;;;;;32.26;32.97;98107.06;4994766;28;20065;-80
2021/09/08 10:41:08;;;;;;;10.35;5.60;;;;;;;31.99;34.04;98110.28;4993492;28;20046;-80
2021/09/08 10:43:37;;;;;;;7.53;5.80;;;;;;;31.53;33.64;98110.03;4993723;28;20565;-82
2021/09/08 10:46:08;;;;;;;11.40;5.72;;;;;;;33.68;31.49;98101.06;4993400;28;20541;-80
2021/09/08 10:48:43;;;;;;;10.43;5.68;;;;;;;32.56;33.88;98091.72;4992890;28;20042;-80
2021/09/08 10:51:20;;;;;;;10.73;5.60;;;;;;;32.09;32.82;98088.78;4977472;28;20208;-80
2021/09/08 10:54:02;;;;;;;7.45;5.90;;;;;;;31.65;34.58;98095.28;4975517;28;20039;-81
2021/09/08 10:56:41;;;;;;;6.80;5.55;;;;;;;33.39;31.01;98082.88;4991978;28;20057;-79
2021/09/08 10:59:08;;;;;;;9.20;5.60;;;;;;;34.01;30.65;98080.97;4993276;28;20051;-80
2021/09/08 11:01:34;;;;;;;9.45;5.93;;;;;;;33.17;32.10;98086.44;4992256;28;20190;-81
2021/09/08 11:04:02;;;;;;;9.60;5.90;;;;;;;31.57;32.38;98080.69;4991502;28;20084;-79
2021/09/08 11:06:36;;;;;;;11.43;5.72;;;;;;;32.24;32.70;98077.91;4976001;28;20069;-79
2021/09/08 11:09:04;;;;;;;12.75;5.45;;;;;;;33.83;30.88;98076.03;4993481;28;20042;-80
2021/09/08 11:11:31;;;;;;;9.23;6.20;;;;;;;34.12;30.16;98079.31;4993071;28;20042;-80
2021/09/08 11:13:59;;;;;;;7.68;5.88;;;;;;;34.62;28.77;98066.09;4993688;28;20069;-80
2021/09/08 11:16:28;;;;;;;6.88;5.65;;;;;;;32.40;32.72;98067.38;4992571;28;20121;-80
2021/09/08 11:18:58;;;;;;;8.80;5.75;;;;;;;33.18;29.39;98061.97;4993465;28;20438;-78
2021/09/08 11:21:27;;;;;;;9.82;5.40;;;;;;;33.38;30.29;98062.44;4993559;28;20107;-78
2021/09/08 11:24:04;;;;;;;7.10;5.88;;;;;;;34.64;28.15;98061.56;4995219;28;20046;-78
2021/09/08 11:26:32;;;;;;;9.32;6.30;;;;;;;33.72;31.03;98059.59;4992143;28;20398;-82
2021/09/08 11:29:04;;;;;;;12.15;6.00;;;;;;;35.31;29.08;98060.75;4991182;28;20050;-81
2021/09/08 11:31:33;;;;;;;7.00;5.80;;;;;;;35.28;27.66;98056.06;4990604;28;20050;-80
2021/09/08 11:34:01;;;;;;;9.82;5.80;;;;;;;32.66;32.07;98059.72;4992569;28;20046;-80
2021/09/08 11:36:29;;;;;;;7.95;5.90;;;;;;;34.33;30.18;98044.75;4991585;28;20053;-82
2021/09/08 11:38:58;;;;;;;6.85;5.53;;;;;;;33.99;29.59;98046.94;4990849;28;20042;-82
2021/09/08 11:41:27;;;;;;;8.30;5.63;;;;;;;32.95;31.34;98045.53;4990752;28;20046;-80
2021/09/08 11:43:55;;;;;;;9.68;5.70;;;;;;;35.32;28.08;98051.81;4992484;28;20054;-81
2021/09/08 11:46:23;;;;;;;8.68;5.47;;;;;;;35.45;27.58;98052.44;4991125;28;20046;-80
2021/09/08 11:49:12;;;;;;;8.35;5.50;;;;;;;34.22;28.02;98047.22;4992499;28;20108;-80
2021/09/08 11:51:41;;;;;;;6.50;5.45;;;;;;;36.86;27.12;98034.38;4991494;28;20513;-80
2021/09/08 11:54:14;;;;;;;5.80;5.07;;;;;;;36.86;25.93;98031.56;4992647;28;20054;-79
2021/09/08 11:57:01;;;;;;;7.63;5.70;;;;;;;34.67;28.61;98037.34;4992539;28;20043;-79
2021/09/08 11:59:35;;;;;;;8.93;5.53;;;;;;;35.51;28.24;98030.84;4992669;28;20337;-80
2021/09/08 12:02:02;;;;;;;10.35;5.55;;;;;;;33.09;29.85;98028.19;4991146;28;20042;-80
2021/09/08 12:04:30;;;;;;;10.07;5.35;;;;;;;35.41;26.76;98029.28;4992464;28;20047;-79
2021/09/08 12:07:04;;;;;;;11.05;5.72;;;;;;;36.43;26.47;98026.47;4991869;28;20042;-77
2021/09/08 12:09:35;;;;;;;8.40;5.97;;;;;;;35.19;27.38;98030.69;4991466;28;20050;-79
2021/09/08 12:12:06;;;;;;;10.50;5.32;;;;;;;34.82;28.00;98024.25;4991678;28;20057;-79
2021/09/08 12:14:33;;;;;;;5.78;5.18;;;;;;;36.68;27.30;98028.88;4990653;28;20039;-80
2021/09/08 12:17:01;;;;;;;8.05;5.82;;;;;;;34.95;27.06;98031.28;4974800;28;20042;-80
2021/09/08 12:19:33;;;;;;;6.95;5.50;;;;;;;37.24;26.11;98025.19;4990192;28;20101;-80
2021/09/08 12:22:14;;;;;;;6.70;4.70;;;;;;;36.10;24.96;98008.78;4992755;28;20050;-80
2021/09/08 12:24:45;;;;;;;6.68;5.13;;;;;;;36.70;25.47;98011.47;4990816;28;20062;-80
2021/09/08 12:27:30;;;;;;;12.05;5.78;;;;;;;35.68;25.86;98011.56;4991677;28;20046;-81
2021/09/08 12:30:23;;;;;;;7.70;5.63;;;;;;;36.50;25.88;98008.44;4991778;28;20066;-80
2021/09/08 12:32:54;;;;;;;12.15;5.47;;;;;;;34.43;28.13;98015.41;4989073;28;20061;-80
2021/09/08 12:35:51;;;;;;;6.80;5.50;;;;;;;35.87;27.10;98004.63;4992457;28;20137;-81
2021/09/08 12:38:40;;;;;;;7.57;5.60;;;;;;;36.77;24.92;98000.59;4974108;28;20053;-80
2021/09/08 12:41:12;;;;;;;7.88;4.88;;;;;;;36.41;25.51;98000.00;4990093;28;20473;-81
2021/09/08 12:43:46;;;;;;;7.53;5.50;;;;;;;36.79;24.57;97994.44;4990460;28;20061;-79
2021/09/08 12:46:15;;;;;;;10.30;4.82;;;;;;;37.05;24.17;97989.88;4990725;28;20474;-80
2021/09/08 12:48:42;;;;;;;7.75;5.60;;;;;;;33.46;28.02;97987.16;4989151;28;20050;-80
2021/09/08 12:51:10;;;;;;;9.27;5.45;;;;;;;34.82;26.65;97987.66;4991591;28;20042;-79
2021/09/08 12:53:37;;;;;;;9.98;5.50;;;;;;;35.23;25.92;97975.78;4990839;28;20046;-81